createdAt,value
2019-01-29T00:02:45.199Z,64.08
2019-01-29T00:06:49.878Z,64.03
2019-01-29T00:10:54.561Z,63.96
2019-01-29T00:14:59.241Z,63.77
2019-01-29T00:19:03.921Z,63.39
2019-01-29T00:23:09.559Z,63.84
2019-01-29T00:27:14.237Z,63.25
2019-01-29T00:31:18.924Z,63.14
2019-01-29T00:35:23.607Z,62.92
2019-01-29T00:39:28.296Z,63.20
2019-01-29T00:43:32.960Z,63.04
2019-01-29T00:47:37.641Z,63.39
2019-01-29T00:51:42.310Z,63.58
2019-01-29T00:55:46.989Z,63.85
2019-01-29T00:59:52.510Z,64.16
2019-01-29T01:03:57.222Z,64.33
2019-01-29T01:08:01.901Z,64.26
2019-01-29T01:12:06.585Z,64.05
2019-01-29T01:16:11.262Z,63.87
2019-01-29T01:20:17.674Z,63.94
2019-01-29T01:24:22.349Z,64.10
2019-01-29T01:28:27.031Z,64.36
2019-01-29T01:32:31.714Z,64.87
2019-01-29T01:36:36.386Z,63.90
2019-01-29T01:40:41.074Z,63.11
2019-01-29T01:44:45.747Z,62.95
2019-01-29T01:48:50.427Z,62.89
2019-01-29T01:52:59.268Z,63.49
2019-01-29T01:57:01.549Z,63.74
2019-01-29T02:01:06.233Z,63.50
2019-01-29T02:05:10.905Z,63.39
2019-01-29T02:09:15.587Z,63.31
2019-01-29T02:13:20.258Z,63.27
2019-01-29T02:17:24.939Z,63.26
2019-01-29T02:21:29.618Z,63.41
2019-01-29T02:25:34.286Z,63.61
2019-01-29T02:29:38.982Z,64.22
2019-01-29T02:33:43.648Z,64.72
2019-01-29T02:37:48.324Z,64.89
2019-01-29T02:41:53.001Z,65.35
2019-01-29T02:45:57.666Z,65.56
2019-01-29T02:50:02.362Z,65.30
2019-01-29T02:54:07.027Z,64.98
2019-01-29T02:58:11.708Z,65.10
2019-01-29T03:02:17.459Z,64.64
2019-01-29T03:06:22.128Z,64.46
2019-01-29T03:10:27.245Z,64.60
2019-01-29T03:14:31.961Z,64.63
2019-01-29T03:18:36.602Z,64.51
2019-01-29T03:22:41.284Z,64.08
2019-01-29T03:26:45.953Z,64.32
2019-01-29T03:30:50.635Z,64.52
2019-01-29T03:34:55.310Z,64.91
2019-01-29T03:38:59.984Z,65.15
2019-01-29T03:43:04.650Z,65.26
2019-01-29T03:47:09.330Z,65.18
2019-01-29T03:51:14.009Z,65.64
2019-01-29T03:55:18.688Z,65.64
2019-01-29T03:59:23.366Z,65.49
2019-01-29T04:03:28.048Z,65.15
2019-01-29T04:07:32.717Z,64.50
2019-01-29T04:11:37.391Z,64.35
2019-01-29T04:15:42.065Z,64.10
2019-01-29T04:19:46.745Z,64.33
2019-01-29T04:23:51.423Z,64.21
2019-01-29T04:27:56.099Z,64.29
2019-01-29T04:32:00.870Z,64.46
2019-01-29T04:36:05.527Z,64.49
2019-01-29T04:40:12.643Z,65.09
2019-01-29T04:44:17.339Z,65.15
2019-01-29T04:48:22.006Z,64.99
2019-01-29T04:52:26.686Z,64.74
2019-01-29T04:56:31.362Z,64.46
2019-01-29T05:00:36.045Z,64.08
2019-01-29T05:04:40.737Z,63.77
2019-01-29T05:08:45.394Z,63.61
2019-01-29T05:12:50.077Z,63.58
2019-01-29T05:16:54.750Z,63.70
2019-01-29T05:20:59.440Z,63.80
2019-01-29T05:25:05.847Z,63.38
2019-01-29T05:29:10.538Z,62.56
2019-01-29T05:33:15.212Z,62.67
2019-01-29T05:37:19.904Z,63.39
2019-01-29T05:41:24.572Z,63.66
2019-01-29T05:45:29.241Z,63.86
2019-01-29T05:49:33.922Z,64.00
2019-01-29T05:53:38.606Z,64.16
2019-01-29T05:57:43.291Z,64.30
2019-01-29T06:01:47.971Z,64.22
2019-01-29T06:05:52.639Z,64.43
2019-01-29T06:09:57.325Z,64.59
2019-01-29T06:14:02.006Z,64.75
2019-01-29T06:18:06.685Z,64.84
2019-01-29T06:22:11.367Z,65.25
2019-01-29T06:26:16.047Z,65.84
2019-01-29T06:30:23.320Z,66.49
2019-01-29T06:34:28.004Z,65.32
2019-01-29T06:38:32.679Z,64.67
2019-01-29T06:42:37.341Z,64.46
2019-01-29T06:46:42.029Z,64.22
2019-01-29T06:50:46.698Z,64.30
2019-01-29T06:54:51.379Z,64.01
2019-01-29T06:58:56.054Z,64.44
2019-01-29T07:03:01.261Z,63.70
2019-01-29T07:07:05.943Z,63.04
2019-01-29T07:11:10.623Z,62.40
2019-01-29T07:15:40.760Z,62.24
2019-01-29T07:19:45.445Z,62.22
2019-01-29T07:23:50.126Z,62.09
2019-01-29T07:27:54.802Z,61.98
2019-01-29T07:31:59.481Z,61.62
2019-01-29T07:36:04.169Z,62.29
2019-01-29T07:40:10.239Z,61.69
2019-01-29T07:44:14.891Z,61.18
2019-01-29T07:48:19.573Z,60.51
2019-01-29T07:52:24.260Z,60.25
2019-01-29T07:56:28.940Z,59.88
2019-01-29T08:00:33.615Z,59.47
2019-01-29T08:04:38.306Z,59.34
2019-01-29T08:08:42.980Z,60.40
2019-01-29T08:12:47.668Z,59.71
2019-01-29T08:16:53.327Z,59.48
2019-01-29T08:20:58.014Z,58.99
2019-01-29T08:25:02.721Z,58.71
2019-01-29T08:29:07.387Z,58.50
2019-01-29T08:33:12.065Z,58.59
2019-01-29T08:37:16.741Z,58.48
2019-01-29T08:41:21.419Z,58.18
2019-01-29T08:45:26.091Z,57.86
2019-01-29T08:49:30.763Z,57.42
2019-01-29T08:53:35.453Z,56.58
2019-01-29T08:57:40.120Z,56.10
2019-01-29T09:01:44.839Z,55.73
2019-01-29T09:05:49.523Z,55.78
2019-01-29T09:09:54.197Z,55.85
2019-01-29T09:13:58.881Z,55.97
2019-01-29T09:18:03.570Z,55.61
2019-01-29T09:22:08.287Z,56.25
2019-01-29T09:26:12.968Z,55.72
2019-01-29T09:30:19.080Z,55.52
2019-01-29T09:34:23.775Z,55.50
2019-01-29T09:38:28.467Z,55.30
2019-01-29T09:42:33.146Z,55.27
2019-01-29T09:46:37.833Z,54.94
2019-01-29T09:50:42.494Z,54.63
2019-01-29T09:54:47.240Z,54.67
2019-01-29T09:58:51.849Z,54.66
2019-01-29T10:02:56.532Z,54.45
2019-01-29T10:07:01.213Z,54.05
2019-01-29T10:11:05.882Z,53.94
2019-01-29T10:15:17.102Z,53.21
2019-01-29T10:19:21.788Z,53.26
2019-01-29T10:23:26.469Z,52.85
2019-01-29T10:27:31.147Z,52.73
2019-01-29T10:31:35.819Z,52.64
2019-01-29T10:35:40.508Z,52.33
2019-01-29T10:39:45.181Z,51.96
2019-01-29T10:43:49.851Z,52.07
2019-01-29T10:47:54.534Z,51.97
2019-01-29T10:51:59.461Z,52.31
2019-01-29T10:56:04.141Z,52.31
2019-01-29T11:00:14.717Z,52.29
2019-01-29T11:04:19.401Z,52.32
2019-01-29T11:08:24.084Z,52.43
2019-01-29T11:12:28.749Z,52.32
2019-01-29T11:16:33.438Z,51.66
2019-01-29T11:20:38.120Z,51.98
2019-01-29T11:24:42.793Z,51.82
2019-01-29T11:28:47.476Z,51.84
2019-01-29T11:32:52.142Z,51.88
2019-01-29T11:36:56.831Z,51.97
2019-01-29T11:41:01.513Z,51.49
2019-01-29T11:45:09.449Z,52.07
2019-01-29T11:49:14.143Z,53.20
2019-01-29T11:53:18.812Z,53.67
2019-01-29T11:57:23.493Z,52.90
2019-01-29T12:01:28.176Z,53.38
2019-01-29T12:05:32.856Z,53.59
2019-01-29T12:09:37.537Z,53.82
2019-01-29T12:13:42.206Z,53.76
2019-01-29T12:17:47.954Z,53.31
2019-01-29T12:21:52.634Z,53.15
2019-01-29T12:25:57.391Z,51.93
2019-01-29T12:30:02.066Z,51.04
2019-01-29T12:34:06.738Z,51.10
2019-01-29T12:38:12.485Z,52.29
2019-01-29T12:42:17.172Z,53.18
2019-01-29T12:46:21.845Z,53.13
2019-01-29T12:50:28.262Z,53.11
2019-01-29T12:54:33.904Z,53.21
2019-01-29T12:58:38.589Z,53.57
2019-01-29T13:02:43.266Z,53.97
2019-01-29T13:06:47.950Z,53.84
2019-01-29T13:10:52.621Z,53.75
2019-01-29T13:14:57.307Z,53.21
2019-01-29T13:19:01.988Z,52.67
2019-01-29T13:23:06.668Z,50.04
2019-01-29T13:27:11.349Z,48.72
2019-01-29T13:31:16.013Z,48.22
2019-01-29T13:35:21.041Z,47.79
2019-01-29T13:39:25.718Z,48.16
2019-01-29T13:43:30.403Z,48.90
2019-01-29T13:47:35.087Z,50.17
2019-01-29T13:51:39.754Z,51.07
2019-01-29T13:55:44.437Z,51.70
2019-01-29T13:59:49.124Z,51.91
2019-01-29T14:03:53.812Z,51.80
2019-01-29T14:07:58.489Z,52.69
2019-01-29T14:12:03.230Z,52.32
2019-01-29T14:16:08.011Z,52.58
2019-01-29T14:20:20.153Z,52.50
2019-01-29T14:24:24.826Z,51.21
2019-01-29T14:28:29.502Z,51.22
2019-01-29T14:32:34.189Z,50.06
2019-01-29T14:36:38.864Z,49.90
2019-01-29T14:40:43.546Z,50.12
2019-01-29T14:44:48.228Z,50.89
2019-01-29T14:48:52.918Z,52.09
2019-01-29T14:52:57.591Z,52.42
2019-01-29T14:57:02.267Z,52.97
2019-01-29T15:01:06.958Z,52.92
2019-01-29T15:05:11.644Z,53.39
2019-01-29T15:09:17.572Z,53.56
2019-01-29T15:13:22.389Z,53.95
2019-01-29T15:17:28.716Z,53.83
2019-01-29T15:21:37.945Z,54.05
2019-01-29T15:25:39.787Z,54.10
2019-01-29T15:29:44.473Z,54.10
2019-01-29T15:33:49.153Z,54.35
2019-01-29T15:37:54.788Z,54.25
2019-01-29T15:41:59.529Z,54.72
2019-01-29T15:46:04.216Z,54.80
2019-01-29T15:50:12.442Z,55.19
2019-01-29T15:54:17.110Z,55.17
2019-01-29T15:58:21.799Z,55.27
2019-01-29T16:02:26.486Z,55.14
2019-01-29T16:06:31.167Z,55.74
2019-01-29T16:10:40.816Z,56.12
2019-01-29T16:14:46.555Z,56.56
2019-01-29T16:18:51.244Z,56.79
2019-01-29T16:22:56.009Z,56.24
2019-01-29T16:27:06.756Z,56.01
2019-01-29T16:31:07.077Z,56.01
2019-01-29T16:35:15.102Z,56.13
2019-01-29T16:39:19.781Z,56.29
2019-01-29T16:43:24.469Z,56.25
2019-01-29T16:47:29.155Z,55.98
2019-01-29T16:51:41.965Z,55.64
2019-01-29T16:55:40.208Z,56.24
2019-01-29T16:59:44.893Z,56.92
2019-01-29T17:03:50.557Z,56.66
2019-01-29T17:07:55.268Z,56.22
2019-01-29T17:11:59.948Z,56.22
2019-01-29T17:16:04.620Z,56.34
2019-01-29T17:20:24.086Z,55.97
2019-01-29T17:24:28.796Z,55.80
2019-01-29T17:28:33.486Z,55.52
2019-01-29T17:32:38.174Z,55.29
2019-01-29T17:36:42.847Z,55.13
2019-01-29T17:40:47.534Z,55.19
2019-01-29T17:44:52.221Z,55.38
2019-01-29T17:48:56.906Z,55.66
2019-01-29T17:53:01.586Z,56.14
2019-01-29T17:57:07.239Z,56.50
2019-01-29T18:01:12.006Z,56.92
2019-01-29T18:05:16.692Z,57.29
2019-01-29T18:09:21.388Z,57.62
2019-01-29T18:13:26.093Z,57.83
2019-01-29T18:17:30.773Z,58.01
2019-01-29T18:21:35.460Z,58.08
2019-01-29T18:25:40.145Z,57.92
2019-01-29T18:29:44.829Z,57.83
2019-01-29T18:33:49.504Z,57.70
2019-01-29T18:37:54.190Z,57.70
2019-01-29T18:41:58.877Z,57.63
2019-01-29T18:46:05.034Z,57.60
2019-01-29T18:50:15.061Z,57.76
2019-01-29T18:54:19.746Z,57.83
2019-01-29T18:58:24.423Z,57.95
2019-01-29T19:02:29.108Z,57.97
2019-01-29T19:06:33.795Z,58.13
2019-01-29T19:10:38.480Z,58.24
2019-01-29T19:14:43.235Z,58.43
2019-01-29T19:18:47.921Z,58.69
2019-01-29T19:22:52.603Z,59.10
2019-01-29T19:26:57.286Z,59.33
2019-01-29T19:31:01.980Z,59.58
2019-01-29T19:35:07.290Z,59.60
2019-01-29T19:39:11.975Z,60.12
2019-01-29T19:43:16.664Z,60.06
2019-01-29T19:47:21.350Z,60.21
2019-01-29T19:51:26.040Z,60.17
2019-01-29T19:55:30.719Z,60.56
2019-01-29T19:59:35.404Z,61.07
2019-01-29T20:03:40.094Z,61.23
2019-01-29T20:07:44.782Z,61.22
2019-01-29T20:11:49.473Z,61.32
2019-01-29T20:15:54.150Z,61.37
2019-01-29T20:19:58.848Z,61.45
2019-01-29T20:24:03.544Z,61.52
2019-01-29T20:28:08.234Z,61.60
2019-01-29T20:32:12.925Z,61.54
2019-01-29T20:36:17.608Z,61.71
2019-01-29T20:41:22.479Z,62.17
2019-01-29T20:45:26.060Z,62.67
2019-01-29T20:49:29.517Z,62.82
2019-01-29T20:53:32.974Z,62.84
2019-01-29T20:57:36.430Z,62.91
2019-01-29T21:01:39.885Z,63.15
2019-01-29T21:05:43.346Z,63.40
2019-01-29T21:09:46.809Z,63.56
2019-01-29T21:13:50.269Z,63.63
2019-01-29T21:17:53.714Z,63.59
2019-01-29T21:21:57.170Z,64.51
2019-01-29T21:26:00.635Z,64.15
2019-01-29T21:30:04.105Z,63.82
2019-01-29T21:34:07.628Z,63.62
2019-01-29T21:38:11.089Z,63.40
2019-01-29T21:42:14.529Z,63.17
2019-01-29T21:46:17.988Z,63.16
2019-01-29T21:50:21.445Z,63.18
2019-01-29T21:54:24.901Z,63.27
2019-01-29T21:58:28.354Z,63.06
2019-01-29T22:02:31.813Z,62.98
2019-01-29T22:06:35.275Z,62.97
2019-01-29T22:10:38.733Z,62.80
2019-01-29T22:14:42.189Z,62.64
2019-01-29T22:18:45.628Z,62.48
2019-01-29T22:22:49.084Z,62.45
2019-01-29T22:26:52.539Z,62.55
2019-01-29T22:30:55.997Z,62.59
2019-01-29T22:34:59.457Z,62.68
2019-01-29T22:39:03.374Z,62.60
2019-01-29T22:43:06.823Z,62.39
2019-01-29T22:47:10.281Z,62.39
2019-01-29T22:51:13.781Z,62.13
2019-01-29T22:55:18.277Z,61.86
2019-01-29T22:59:22.793Z,61.79
2019-01-29T23:03:27.634Z,61.66
2019-01-29T23:07:31.094Z,61.72
2019-01-29T23:11:34.555Z,61.66
2019-01-29T23:15:37.997Z,61.72
2019-01-29T23:19:42.519Z,61.59
2019-01-29T23:23:45.974Z,61.79
2019-01-29T23:27:49.431Z,61.85
2019-01-29T23:31:52.891Z,61.96
2019-01-29T23:35:56.336Z,62.26
2019-01-29T23:39:59.786Z,62.34
2019-01-29T23:44:04.308Z,62.39
2019-01-29T23:48:07.772Z,62.59
2019-01-29T23:52:11.235Z,62.55
2019-01-29T23:56:14.680Z,62.24
